createdAt,value
2023-04-01T00:02:05.527Z,8.47
2023-04-01T00:04:33.254Z,8.48
2023-04-01T00:07:01.219Z,8.47
2023-04-01T00:09:29.998Z,8.18
2023-04-01T00:11:58.982Z,8.40
2023-04-01T00:14:26.465Z,8.52
2023-04-01T00:16:54.173Z,8.35
2023-04-01T00:19:21.675Z,8.32
2023-04-01T00:21:49.329Z,8.34
2023-04-01T00:24:16.831Z,8.32
2023-04-01T00:26:45.465Z,8.37
2023-04-01T00:29:14.307Z,8.47
2023-04-01T00:31:41.830Z,8.47
2023-04-01T00:34:09.363Z,8.35
2023-04-01T00:36:36.850Z,8.52
2023-04-01T00:39:04.556Z,8.38
2023-04-01T00:41:32.019Z,8.38
2023-04-01T00:46:54.381Z,8.92
2023-04-01T00:49:26.046Z,8.68
2023-04-01T00:51:56.734Z,8.24
2023-04-01T00:54:26.528Z,8.22
2023-04-01T00:56:58.861Z,8.09
2023-04-01T00:59:28.514Z,8.01
2023-04-01T01:01:57.477Z,8.16
2023-04-01T01:04:26.915Z,8.14
2023-04-01T01:07:04.141Z,8.11
2023-04-01T01:09:41.557Z,8.15
2023-04-01T01:12:15.009Z,8.04
2023-04-01T01:14:54.378Z,8.17
2023-04-01T01:17:31.590Z,8.10
2023-04-01T01:20:25.919Z,8.08
2023-04-01T01:23:18.771Z,8.28
2023-04-01T01:25:51.460Z,8.34
2023-04-01T01:28:35.405Z,8.41
2023-04-01T01:31:14.587Z,8.41
2023-04-01T01:33:55.330Z,8.79
2023-04-01T01:36:27.149Z,8.46
2023-04-01T01:38:55.325Z,8.29
2023-04-01T01:41:24.456Z,8.25
2023-04-01T01:43:54.769Z,8.52
2023-04-01T01:46:25.880Z,8.47
2023-04-01T01:48:54.224Z,8.71
2023-04-01T01:51:24.683Z,8.69
2023-04-01T01:53:52.174Z,8.61
2023-04-01T01:56:23.582Z,8.62
2023-04-01T01:58:54.668Z,8.52
2023-04-01T02:01:26.561Z,8.66
2023-04-01T02:03:55.407Z,8.69
2023-04-01T02:06:27.931Z,8.46
2023-04-01T02:08:58.097Z,8.37
2023-04-01T02:11:30.455Z,8.36
2023-04-01T02:14:04.701Z,8.23
2023-04-01T02:16:37.023Z,8.15
2023-04-01T02:19:08.278Z,8.20
2023-04-01T02:21:38.867Z,8.43
2023-04-01T02:24:09.817Z,8.34
2023-04-01T02:26:37.339Z,8.40
2023-04-01T02:29:07.419Z,8.31
2023-04-01T02:31:36.183Z,8.51
2023-04-01T02:34:05.355Z,8.46
2023-04-01T02:36:33.816Z,8.46
2023-04-01T02:39:05.231Z,8.58
2023-04-01T02:41:32.758Z,8.53
2023-04-01T02:44:00.323Z,8.55
2023-04-01T02:46:27.869Z,8.49
2023-04-01T02:48:55.710Z,8.42
2023-04-01T02:51:23.177Z,8.44
2023-04-01T02:53:50.948Z,8.20
2023-04-01T02:56:20.528Z,8.38
2023-04-01T02:58:48.017Z,8.53
2023-04-01T03:01:15.595Z,8.38
2023-04-01T03:03:43.134Z,8.40
2023-04-01T03:06:12.973Z,8.31
2023-04-01T03:08:40.555Z,8.30
2023-04-01T03:11:08.321Z,8.20
2023-04-01T03:13:37.139Z,8.36
2023-04-01T03:16:05.082Z,8.30
2023-04-01T03:18:32.556Z,8.35
2023-04-01T03:21:14.338Z,8.31
2023-04-01T03:23:41.818Z,8.39
2023-04-01T03:26:09.671Z,8.24
2023-04-01T03:28:38.807Z,8.38
2023-04-01T03:31:07.083Z,8.24
2023-04-01T03:33:34.665Z,8.17
2023-04-01T03:36:02.206Z,8.29
2023-04-01T03:38:29.717Z,8.33
2023-04-01T03:40:57.187Z,8.16
2023-04-01T03:43:24.651Z,8.38
2023-04-01T03:45:55.425Z,8.26
2023-04-01T03:48:22.942Z,8.14
2023-04-01T03:50:50.712Z,8.24
2023-04-01T03:53:18.210Z,8.26
2023-04-01T03:55:45.952Z,8.31
2023-04-01T03:58:13.646Z,8.33
2023-04-01T04:00:41.628Z,8.52
2023-04-01T04:03:10.763Z,8.60
2023-04-01T04:05:38.287Z,8.62
2023-04-01T04:08:06.149Z,8.41
2023-04-01T04:10:33.647Z,8.28
2023-04-01T04:13:01.090Z,8.29
2023-04-01T04:15:28.550Z,8.30
2023-04-01T04:17:56.034Z,8.31
2023-04-01T04:20:24.861Z,8.16
2023-04-01T04:22:52.339Z,8.04
2023-04-01T04:25:19.819Z,8.03
2023-04-01T04:27:47.450Z,7.95
2023-04-01T04:30:15.591Z,7.78
2023-04-01T04:32:43.175Z,8.12
2023-04-01T04:35:10.819Z,8.10
2023-04-01T04:37:39.618Z,8.16
2023-04-01T04:40:08.637Z,8.07
2023-04-01T04:42:36.135Z,7.96
2023-04-01T04:45:03.940Z,7.74
2023-04-01T04:47:31.445Z,7.79
2023-04-01T04:49:58.922Z,7.78
2023-04-01T04:52:26.374Z,7.74
2023-04-01T04:54:55.290Z,7.73
2023-04-01T04:57:22.883Z,7.78
2023-04-01T04:59:50.492Z,7.70
2023-04-01T05:02:18.525Z,7.85
2023-04-01T05:04:45.974Z,8.12
2023-04-01T05:07:13.603Z,8.31
2023-04-01T05:09:41.232Z,8.31
2023-04-01T05:12:10.071Z,8.37
2023-04-01T05:14:37.672Z,8.32
2023-04-01T05:17:05.324Z,8.39
2023-04-01T05:19:32.858Z,8.11
2023-04-01T05:22:00.334Z,8.31
2023-04-01T05:24:27.884Z,8.47
2023-04-01T05:26:56.866Z,8.56
2023-04-01T05:29:26.136Z,8.47
2023-04-01T05:31:53.783Z,8.81
2023-04-01T05:34:21.253Z,8.77
2023-04-01T05:36:48.720Z,8.57
2023-04-01T05:39:16.357Z,8.48
2023-04-01T05:41:44.047Z,8.51
2023-04-01T05:44:13.561Z,8.62
2023-04-01T05:46:42.584Z,8.92
2023-04-01T05:49:10.164Z,9.23
2023-04-01T05:51:37.638Z,9.34
2023-04-01T05:54:06.714Z,9.24
2023-04-01T05:56:34.198Z,9.11
2023-04-01T05:59:01.668Z,9.15
2023-04-01T06:01:29.137Z,8.91
2023-04-01T06:03:58.102Z,9.31
2023-04-01T06:06:28.077Z,9.02
2023-04-01T06:08:58.435Z,9.24
2023-04-01T06:11:34.630Z,8.90
2023-04-01T06:14:12.159Z,8.91
2023-04-01T06:16:51.646Z,9.04
2023-04-01T06:19:31.214Z,9.08
2023-04-01T06:22:30.044Z,9.05
2023-04-01T06:25:15.114Z,9.52
2023-04-01T06:28:02.918Z,9.32
2023-04-01T06:30:40.265Z,9.23
2023-04-01T06:33:29.807Z,9.44
2023-04-01T06:36:19.988Z,9.35
2023-04-01T06:39:00.571Z,9.08
2023-04-01T06:41:46.754Z,8.84
2023-04-01T06:44:22.256Z,9.16
2023-04-01T06:46:59.291Z,9.42
2023-04-01T06:49:46.463Z,9.18
2023-04-01T06:52:23.683Z,9.36
2023-04-01T06:54:55.298Z,9.60
2023-04-01T06:57:30.412Z,9.97
2023-04-01T07:00:01.747Z,10.04
2023-04-01T07:02:36.831Z,10.03
2023-04-01T07:05:06.259Z,10.90
2023-04-01T07:07:41.249Z,10.47
2023-04-01T07:10:14.836Z,11.19
2023-04-01T07:12:48.793Z,11.24
2023-04-01T07:15:21.213Z,11.08
2023-04-01T07:17:54.480Z,10.78
2023-04-01T07:20:28.176Z,10.88
2023-04-01T07:23:00.513Z,10.69
2023-04-01T07:25:31.264Z,10.91
2023-04-01T07:28:03.021Z,11.38
2023-04-01T07:30:37.851Z,11.14
2023-04-01T07:33:11.774Z,10.98
2023-04-01T07:35:45.402Z,10.65
2023-04-01T07:38:25.014Z,10.73
2023-04-01T07:41:05.135Z,10.89
2023-04-01T07:43:44.256Z,11.06
2023-04-01T07:46:23.456Z,10.95
2023-04-01T07:48:58.684Z,10.15
2023-04-01T07:51:31.225Z,10.52
2023-04-01T07:54:08.805Z,11.01
2023-04-01T07:56:44.720Z,11.07
2023-04-01T07:59:23.758Z,11.33
2023-04-01T08:02:00.297Z,10.95
2023-04-01T08:04:43.509Z,10.85
2023-04-01T08:07:15.371Z,11.17
2023-04-01T08:09:51.868Z,10.98
2023-04-01T08:12:29.665Z,11.52
2023-04-01T08:15:10.565Z,11.66
2023-04-01T08:17:46.767Z,11.75
2023-04-01T08:20:27.176Z,11.57
2023-04-01T08:23:01.831Z,11.81
2023-04-01T08:25:32.886Z,12.67
2023-04-01T08:28:06.414Z,12.90
2023-04-01T08:30:43.154Z,13.64
2023-04-01T08:33:16.644Z,13.69
2023-04-01T08:35:51.229Z,13.75
2023-04-01T08:38:23.664Z,13.59
2023-04-01T08:41:01.701Z,13.06
2023-04-01T08:43:45.841Z,13.13
2023-04-01T08:46:37.080Z,12.98
2023-04-01T08:49:24.707Z,13.10
2023-04-01T08:52:16.976Z,12.99
2023-04-01T08:55:11.731Z,13.40
2023-04-01T08:57:56.770Z,13.50
2023-04-01T09:00:32.487Z,12.92
2023-04-01T09:03:36.158Z,12.71
2023-04-01T09:06:26.024Z,12.78
2023-04-01T09:09:08.371Z,12.79
2023-04-01T09:11:51.585Z,12.56
2023-04-01T09:14:35.209Z,12.94
2023-04-01T09:17:37.574Z,13.05
2023-04-01T09:20:22.034Z,12.62
2023-04-01T09:23:09.886Z,12.37
2023-04-01T09:26:01.628Z,12.10
2023-04-01T09:28:35.796Z,11.85
2023-04-01T09:31:27.797Z,11.76
2023-04-01T09:34:23.428Z,11.47
2023-04-01T09:37:01.211Z,11.94
2023-04-01T09:39:38.225Z,11.96
2023-04-01T09:42:24.378Z,11.82
2023-04-01T09:44:59.436Z,12.13
2023-04-01T09:47:45.968Z,12.44
2023-04-01T09:50:31.630Z,12.05
2023-04-01T09:53:14.281Z,12.40
2023-04-01T09:56:04.394Z,12.88
2023-04-01T09:58:59.273Z,12.59
2023-04-01T10:01:45.984Z,12.64
2023-04-01T10:04:33.553Z,11.91
2023-04-01T10:07:28.347Z,11.88
2023-04-01T10:10:28.037Z,11.98
2023-04-01T10:13:16.669Z,11.62
2023-04-01T10:16:12.299Z,11.73
2023-04-01T10:18:58.540Z,12.01
2023-04-01T10:21:59.818Z,12.10
2023-04-01T10:25:05.728Z,11.88
2023-04-01T10:28:08.204Z,12.06
2023-04-01T10:31:26.192Z,12.42
2023-04-01T10:34:23.679Z,12.66
2023-04-01T10:36:56.960Z,12.78
2023-04-01T10:39:54.644Z,12.70
2023-04-01T10:42:53.307Z,12.21
2023-04-01T10:45:53.300Z,12.33
2023-04-01T10:48:46.681Z,11.74
2023-04-01T10:51:23.304Z,12.36
2023-04-01T10:54:21.140Z,12.83
2023-04-01T10:56:56.595Z,13.34
2023-04-01T10:59:57.713Z,13.34
2023-04-01T11:03:04.771Z,13.44
2023-04-01T11:06:01.211Z,12.81
2023-04-01T11:09:08.099Z,12.55
2023-04-01T11:12:20.519Z,12.32
2023-04-01T11:15:33.377Z,11.09
2023-04-01T11:18:45.432Z,10.95
2023-04-01T11:21:44.811Z,10.49
2023-04-01T11:24:23.563Z,10.88
2023-04-01T11:27:05.929Z,10.92
2023-04-01T11:29:58.720Z,10.52
2023-04-01T11:32:37.209Z,10.43
2023-04-01T11:35:35.070Z,10.22
2023-04-01T11:38:16.608Z,10.07
2023-04-01T11:40:49.542Z,9.94
2023-04-01T11:43:32.780Z,9.89
2023-04-01T11:46:09.829Z,10.19
2023-04-01T11:49:00.199Z,9.92
2023-04-01T11:51:52.933Z,9.99
2023-04-01T11:54:30.679Z,10.16
2023-04-01T11:57:12.546Z,10.33
2023-04-01T11:59:54.621Z,10.18
2023-04-01T12:02:30.531Z,10.27
2023-04-01T12:05:20.913Z,9.88
2023-04-01T12:08:02.092Z,9.71
2023-04-01T12:10:39.710Z,9.75
2023-04-01T12:13:16.905Z,9.87
2023-04-01T12:15:58.783Z,10.02
2023-04-01T12:18:33.941Z,10.16
2023-04-01T12:21:16.909Z,9.85
2023-04-01T12:24:03.441Z,9.72
2023-04-01T12:26:43.031Z,9.54
2023-04-01T12:29:39.551Z,9.31
2023-04-01T12:32:19.504Z,9.14
2023-04-01T12:35:17.047Z,9.36
2023-04-01T12:37:53.701Z,9.29
2023-04-01T12:40:32.734Z,9.50
2023-04-01T12:43:12.794Z,9.45
2023-04-01T12:45:45.506Z,9.31
2023-04-01T12:48:40.485Z,9.41
2023-04-01T12:51:47.172Z,9.49
2023-04-01T12:54:48.154Z,9.74
2023-04-01T12:57:44.197Z,9.43
2023-04-01T13:00:27.732Z,9.53
2023-04-01T13:03:12.960Z,9.55
2023-04-01T13:05:56.792Z,9.95
2023-04-01T13:08:42.330Z,10.08
2023-04-01T13:11:22.410Z,9.30
2023-04-01T13:14:31.913Z,9.68
2023-04-01T13:17:09.756Z,9.84
2023-04-01T13:19:48.591Z,9.81
2023-04-01T13:22:32.282Z,10.14
2023-04-01T13:25:08.149Z,10.02
2023-04-01T13:27:42.549Z,10.04
2023-04-01T13:30:26.541Z,9.85
2023-04-01T13:33:03.804Z,9.37
2023-04-01T13:35:40.924Z,9.93
2023-04-01T13:38:30.488Z,10.20
2023-04-01T13:41:07.885Z,10.21
2023-04-01T13:43:41.485Z,10.23
2023-04-01T13:46:24.690Z,9.80
2023-04-01T13:49:07.161Z,9.94
2023-04-01T13:51:59.000Z,10.06
2023-04-01T13:54:53.624Z,10.11
2023-04-01T13:57:40.389Z,9.80
2023-04-01T14:00:41.025Z,9.74
2023-04-01T14:03:34.065Z,10.06
2023-04-01T14:06:12.107Z,10.02
2023-04-01T14:08:57.982Z,10.08
2023-04-01T14:11:35.852Z,9.98
2023-04-01T14:14:15.619Z,10.27
2023-04-01T14:17:29.622Z,9.99
2023-04-01T14:20:27.537Z,10.13
2023-04-01T14:23:15.678Z,9.69
2023-04-01T14:26:00.354Z,9.97
2023-04-01T14:28:34.515Z,9.71
2023-04-01T14:31:30.659Z,9.99
2023-04-01T14:34:13.313Z,9.53
2023-04-01T14:36:51.303Z,9.61
2023-04-01T14:39:41.231Z,9.44
2023-04-01T14:42:24.517Z,9.34
2023-04-01T14:45:09.927Z,9.41
2023-04-01T14:47:48.348Z,9.46
2023-04-01T14:50:19.969Z,9.56
2023-04-01T14:52:58.684Z,9.33
2023-04-01T14:55:33.585Z,9.29
2023-04-01T14:58:09.675Z,9.54
2023-04-01T15:00:56.441Z,9.53
2023-04-01T15:03:30.838Z,9.69
2023-04-01T15:06:20.664Z,9.67
2023-04-01T15:08:59.166Z,9.74
2023-04-01T15:11:42.095Z,9.93
2023-04-01T15:14:26.342Z,9.96
2023-04-01T15:17:03.159Z,9.90
2023-04-01T15:19:43.909Z,9.71
2023-04-01T15:22:39.438Z,9.78
2023-04-01T15:25:22.085Z,9.43
2023-04-01T15:27:57.528Z,9.42
2023-04-01T15:30:38.355Z,9.54
2023-04-01T15:33:34.167Z,9.84
2023-04-01T15:36:14.796Z,9.88
2023-04-01T15:38:52.885Z,10.17
2023-04-01T15:41:28.293Z,9.67
2023-04-01T15:43:55.801Z,9.81
2023-04-01T15:46:44.907Z,9.90
2023-04-01T15:49:24.015Z,9.83
2023-04-01T15:52:05.003Z,10.11
2023-04-01T15:55:02.942Z,9.97
2023-04-01T15:57:38.179Z,10.32
2023-04-01T16:00:18.751Z,10.56
2023-04-01T16:02:52.007Z,10.36
2023-04-01T16:05:36.419Z,10.43
2023-04-01T16:08:21.960Z,10.18
2023-04-01T16:11:01.141Z,10.31
2023-04-01T16:13:46.971Z,10.22
2023-04-01T16:16:25.631Z,10.19
2023-04-01T16:19:09.829Z,10.24
2023-04-01T16:21:45.207Z,10.03
2023-04-01T16:24:19.725Z,9.84
2023-04-01T16:26:55.679Z,10.17
2023-04-01T16:29:30.883Z,10.00
2023-04-01T16:32:12.364Z,9.56
2023-04-01T16:34:46.060Z,9.84
2023-04-01T16:37:18.041Z,9.73
2023-04-01T16:39:51.389Z,9.47
2023-04-01T16:42:28.085Z,9.75
2023-04-01T16:45:01.513Z,9.80
2023-04-01T16:47:33.332Z,9.71
2023-04-01T16:50:07.682Z,9.81
2023-04-01T16:52:50.520Z,9.26
2023-04-01T16:55:19.997Z,9.63
2023-04-01T16:57:53.630Z,10.02
2023-04-01T17:00:28.160Z,9.96
2023-04-01T17:03:06.372Z,9.67
2023-04-01T17:05:47.434Z,9.49
2023-04-01T17:08:26.355Z,9.31
2023-04-01T17:10:59.049Z,9.39
2023-04-01T17:13:37.412Z,9.16
2023-04-01T17:16:31.069Z,9.15
2023-04-01T17:19:07.301Z,9.14
2023-04-01T17:21:49.086Z,9.26
2023-04-01T17:24:32.469Z,9.17
2023-04-01T17:27:11.681Z,9.16
2023-04-01T17:30:03.288Z,9.13
2023-04-01T17:32:43.809Z,8.86
2023-04-01T17:35:16.588Z,8.88
2023-04-01T17:37:55.231Z,8.67
2023-04-01T17:40:35.869Z,8.58
2023-04-01T17:43:14.293Z,8.77
2023-04-01T17:45:49.155Z,8.88
2023-04-01T17:48:26.196Z,8.78
2023-04-01T17:51:04.469Z,8.99
2023-04-01T17:53:39.453Z,8.82
2023-04-01T17:56:13.821Z,9.03
2023-04-01T17:58:47.535Z,9.19
2023-04-01T18:01:28.505Z,8.88
2023-04-01T18:04:12.984Z,8.77
2023-04-01T18:06:56.291Z,9.16
2023-04-01T18:09:35.965Z,9.13
2023-04-01T18:12:14.902Z,9.01
2023-04-01T18:15:01.842Z,9.42
2023-04-01T18:17:43.910Z,9.05
2023-04-01T18:20:27.728Z,9.33
2023-04-01T18:22:59.056Z,9.26
2023-04-01T18:25:34.546Z,9.30
2023-04-01T18:28:20.119Z,9.52
2023-04-01T18:30:55.753Z,9.65
2023-04-01T18:33:30.365Z,9.54
2023-04-01T18:36:10.356Z,9.53
2023-04-01T18:38:41.317Z,9.70
2023-04-01T18:41:15.736Z,9.63
2023-04-01T18:43:57.165Z,9.49
2023-04-01T18:46:33.062Z,9.56
2023-04-01T18:49:10.019Z,9.56
2023-04-01T18:51:46.851Z,9.36
2023-04-01T18:54:17.503Z,9.94
2023-04-01T18:56:46.737Z,10.00
2023-04-01T18:59:22.097Z,9.60
2023-04-01T19:01:59.206Z,9.32
2023-04-01T19:04:37.743Z,9.53
2023-04-01T19:07:50.612Z,9.96
2023-04-01T19:10:26.631Z,10.11
2023-04-01T19:13:12.864Z,10.10
2023-04-01T19:15:46.449Z,9.96
2023-04-01T19:18:30.426Z,9.77
2023-04-01T19:21:03.660Z,9.72
2023-04-01T19:24:12.381Z,9.54
2023-04-01T19:26:46.143Z,9.53
2023-04-01T19:29:25.997Z,9.48
2023-04-01T19:32:05.100Z,9.43
2023-04-01T19:34:45.984Z,9.40
2023-04-01T19:37:27.216Z,9.40
2023-04-01T19:40:01.834Z,9.41
2023-04-01T19:42:40.405Z,9.24
2023-04-01T19:45:27.145Z,8.99
2023-04-01T19:48:04.101Z,9.28
2023-04-01T19:50:36.645Z,9.43
2023-04-01T19:53:15.828Z,9.41
2023-04-01T19:55:48.621Z,9.19
2023-04-01T19:58:22.735Z,9.70
2023-04-01T20:00:53.418Z,9.64
2023-04-01T20:03:36.474Z,9.80
2023-04-01T20:06:15.347Z,9.93
2023-04-01T20:08:52.751Z,9.80
2023-04-01T20:11:32.777Z,10.00
2023-04-01T20:14:10.102Z,9.94
2023-04-01T20:16:55.049Z,9.87
2023-04-01T20:19:30.630Z,9.99
2023-04-01T20:22:01.263Z,9.72
2023-04-01T20:24:36.284Z,9.99
2023-04-01T20:27:10.330Z,9.97
2023-04-01T20:29:44.244Z,10.17
2023-04-01T20:32:27.210Z,10.03
2023-04-01T20:35:19.803Z,9.72
2023-04-01T20:37:55.630Z,9.54
2023-04-01T20:40:34.007Z,9.77
2023-04-01T20:43:44.536Z,9.95
2023-04-01T20:46:20.942Z,9.71
2023-04-01T20:49:24.855Z,10.14
2023-04-01T20:51:56.792Z,10.16
2023-04-01T20:54:38.961Z,10.21
2023-04-01T20:57:13.258Z,10.22
2023-04-01T20:59:56.160Z,9.73
2023-04-01T21:02:49.222Z,10.01
2023-04-01T21:06:09.740Z,10.05
2023-04-01T21:08:48.895Z,9.97
2023-04-01T21:11:23.170Z,9.86
2023-04-01T21:14:09.153Z,9.78
2023-04-01T21:16:46.145Z,10.03
2023-04-01T21:19:37.300Z,9.79
2023-04-01T21:22:22.153Z,9.65
2023-04-01T21:25:23.599Z,9.88
2023-04-01T21:28:07.374Z,9.44
2023-04-01T21:30:49.214Z,9.66
2023-04-01T21:33:34.709Z,9.13
2023-04-01T21:36:12.347Z,9.71
2023-04-01T21:38:56.497Z,9.51
2023-04-01T21:41:46.561Z,9.75
2023-04-01T21:44:38.096Z,9.21
2023-04-01T21:47:40.418Z,9.46
2023-04-01T21:50:44.241Z,9.03
2023-04-01T21:54:08.670Z,8.97
2023-04-01T21:57:05.399Z,8.74
2023-04-01T22:00:23.232Z,9.03
2023-04-01T22:03:30.774Z,8.99
2023-04-01T22:06:15.325Z,9.54
2023-04-01T22:08:56.707Z,9.63
2023-04-01T22:11:34.281Z,9.52
2023-04-01T22:14:08.390Z,9.41
2023-04-01T22:16:42.994Z,9.52
2023-04-01T22:19:20.801Z,9.81
2023-04-01T22:22:02.445Z,9.46
2023-04-01T22:24:45.934Z,9.79
2023-04-01T22:27:23.227Z,9.72
2023-04-01T22:30:01.376Z,10.16
2023-04-01T22:32:33.949Z,10.15
2023-04-01T22:35:10.332Z,10.10
2023-04-01T22:37:52.839Z,10.06
2023-04-01T22:40:27.219Z,10.51
2023-04-01T22:43:00.036Z,10.60
2023-04-01T22:45:49.210Z,10.35
2023-04-01T22:48:22.726Z,10.09
2023-04-01T22:50:57.572Z,10.00
2023-04-01T22:53:43.016Z,9.98
2023-04-01T22:56:16.939Z,9.80
2023-04-01T22:58:49.529Z,9.65
2023-04-01T23:01:21.892Z,9.48
2023-04-01T23:03:51.856Z,9.42
2023-04-01T23:06:22.677Z,9.32
2023-04-01T23:09:07.085Z,9.25
2023-04-01T23:11:39.248Z,9.51
2023-04-01T23:14:29.811Z,9.60
2023-04-01T23:17:06.808Z,9.69
2023-04-01T23:19:39.743Z,9.59
2023-04-01T23:22:18.903Z,9.78
2023-04-01T23:24:55.009Z,9.94
2023-04-01T23:27:29.101Z,9.64
2023-04-01T23:29:56.554Z,9.51
2023-04-01T23:32:27.490Z,9.66
2023-04-01T23:34:58.024Z,9.83
2023-04-01T23:37:26.309Z,9.67
2023-04-01T23:39:57.763Z,9.91
2023-04-01T23:42:27.746Z,9.61
2023-04-01T23:44:58.110Z,9.22
2023-04-01T23:47:29.840Z,9.40
2023-04-01T23:49:59.259Z,9.85
2023-04-01T23:52:29.285Z,9.63
2023-04-01T23:55:01.264Z,9.71
2023-04-01T23:57:31.689Z,9.74
